createdAt,value
2022-12-03T00:02:40.010Z,100.00
2022-12-03T00:05:48.792Z,100.00
2022-12-03T00:08:51.959Z,100.00
2022-12-03T00:11:54.921Z,100.00
2022-12-03T00:14:58.064Z,100.00
2022-12-03T00:18:01.140Z,100.00
2022-12-03T00:21:03.870Z,100.00
2022-12-03T00:24:07.187Z,100.00
2022-12-03T00:27:09.731Z,100.00
2022-12-03T00:30:14.487Z,100.00
2022-12-03T00:33:17.190Z,100.00
2022-12-03T00:36:20.356Z,100.00
2022-12-03T00:39:23.145Z,100.00
2022-12-03T00:42:26.278Z,100.00
2022-12-03T00:45:28.974Z,100.00
2022-12-03T00:48:33.311Z,99.72
2022-12-03T00:51:36.046Z,99.27
2022-12-03T00:54:38.882Z,99.02
2022-12-03T00:57:42.147Z,99.66
2022-12-03T01:00:45.027Z,99.35
2022-12-03T01:03:47.800Z,99.73
2022-12-03T01:06:50.858Z,99.45
2022-12-03T01:09:53.761Z,99.50
2022-12-03T01:12:56.651Z,99.85
2022-12-03T01:15:59.310Z,100.00
2022-12-03T01:19:03.337Z,99.51
2022-12-03T01:22:05.998Z,99.46
2022-12-03T01:25:10.242Z,99.47
2022-12-03T01:28:12.798Z,99.65
2022-12-03T01:31:34.231Z,99.85
2022-12-03T01:34:36.918Z,100.00
2022-12-03T01:37:39.866Z,99.45
2022-12-03T01:40:42.758Z,99.65
2022-12-03T01:43:46.341Z,100.00
2022-12-03T01:46:50.063Z,100.00
2022-12-03T01:49:56.892Z,99.95
2022-12-03T01:53:02.469Z,99.80
2022-12-03T01:56:05.826Z,99.91
2022-12-03T01:59:13.708Z,100.00
2022-12-03T02:02:24.055Z,100.00
2022-12-03T02:05:29.977Z,99.67
2022-12-03T02:08:35.414Z,99.56
2022-12-03T02:11:42.954Z,99.81
2022-12-03T02:14:47.482Z,100.00
2022-12-03T02:17:50.751Z,100.00
2022-12-03T02:21:21.658Z,100.00
2022-12-03T02:24:40.022Z,100.00
2022-12-03T02:27:44.435Z,100.00
2022-12-03T02:30:47.157Z,100.00
2022-12-03T02:33:50.535Z,100.00
2022-12-03T02:36:53.159Z,100.00
2022-12-03T02:40:02.552Z,100.00
2022-12-03T02:43:06.007Z,100.00
2022-12-03T02:46:09.036Z,100.00
2022-12-03T02:49:11.958Z,100.00
2022-12-03T02:52:15.300Z,100.00
2022-12-03T02:55:18.466Z,100.00
2022-12-03T02:58:23.334Z,100.00
2022-12-03T03:01:26.114Z,100.00
2022-12-03T03:04:29.312Z,100.00
2022-12-03T03:07:32.014Z,100.00
2022-12-03T03:10:37.267Z,100.00
2022-12-03T03:13:40.347Z,100.00
2022-12-03T03:16:43.534Z,100.00
2022-12-03T03:19:46.795Z,100.00
2022-12-03T03:22:49.779Z,100.00
2022-12-03T03:26:07.231Z,100.00
2022-12-03T03:29:10.172Z,100.00
2022-12-03T03:32:12.887Z,100.00
2022-12-03T03:35:18.011Z,100.00
2022-12-03T03:38:22.275Z,100.00
2022-12-03T03:41:27.886Z,100.00
2022-12-03T03:44:30.583Z,100.00
2022-12-03T03:47:33.602Z,100.00
2022-12-03T03:50:36.843Z,100.00
2022-12-03T03:53:42.916Z,100.00
2022-12-03T03:56:45.702Z,100.00
2022-12-03T03:59:48.569Z,100.00
2022-12-03T04:02:52.558Z,100.00
2022-12-03T04:05:55.575Z,100.00
2022-12-03T04:08:58.286Z,100.00
2022-12-03T04:12:19.834Z,100.00
2022-12-03T04:15:23.211Z,100.00
2022-12-03T04:18:44.510Z,100.00
2022-12-03T04:22:05.550Z,100.00
2022-12-03T04:25:28.781Z,100.00
2022-12-03T04:28:49.866Z,100.00
2022-12-03T04:32:11.590Z,100.00
2022-12-03T04:35:33.195Z,100.00
2022-12-03T04:38:36.517Z,100.00
2022-12-03T04:41:39.164Z,100.00
2022-12-03T04:44:42.157Z,100.00
2022-12-03T04:47:45.110Z,100.00
2022-12-03T04:50:48.312Z,100.00
2022-12-03T04:53:51.079Z,100.00
2022-12-03T04:56:54.103Z,100.00
2022-12-03T04:59:56.740Z,100.00
2022-12-03T05:02:59.751Z,100.00
2022-12-03T05:06:02.433Z,100.00
2022-12-03T05:09:05.507Z,100.00
2022-12-03T05:12:08.110Z,100.00
2022-12-03T05:15:11.613Z,100.00
2022-12-03T05:18:14.239Z,100.00
2022-12-03T05:21:17.126Z,100.00
2022-12-03T05:24:19.724Z,100.00
2022-12-03T05:27:24.060Z,100.00
2022-12-03T05:30:27.143Z,100.00
2022-12-03T05:33:30.194Z,100.00
2022-12-03T05:36:32.846Z,100.00
2022-12-03T05:39:35.740Z,100.00
2022-12-03T05:42:56.937Z,100.00
2022-12-03T05:45:59.915Z,100.00
2022-12-03T05:49:05.679Z,100.00
2022-12-03T05:52:08.518Z,100.00
2022-12-03T05:55:11.872Z,100.00
2022-12-03T05:58:14.712Z,100.00
2022-12-03T06:01:17.252Z,100.00
2022-12-03T06:04:20.181Z,100.00
2022-12-03T06:07:22.731Z,100.00
2022-12-03T06:10:26.653Z,100.00
2022-12-03T06:13:29.278Z,100.00
2022-12-03T06:16:32.368Z,100.00
2022-12-03T06:19:36.199Z,100.00
2022-12-03T06:22:39.215Z,100.00
2022-12-03T06:25:41.748Z,100.00
2022-12-03T06:28:47.629Z,100.00
2022-12-03T06:31:50.347Z,100.00
2022-12-03T06:34:53.659Z,100.00
2022-12-03T06:37:56.390Z,100.00
2022-12-03T06:40:59.241Z,100.00
2022-12-03T06:44:01.923Z,100.00
2022-12-03T06:47:04.869Z,100.00
2022-12-03T06:50:08.943Z,100.00
2022-12-03T06:53:11.819Z,100.00
2022-12-03T06:56:14.431Z,100.00
2022-12-03T06:59:18.547Z,100.00
2022-12-03T07:02:21.205Z,100.00
2022-12-03T07:05:24.095Z,100.00
2022-12-03T07:08:28.100Z,100.00
2022-12-03T07:11:33.530Z,100.00
2022-12-03T07:14:36.078Z,100.00
2022-12-03T07:17:39.155Z,100.00
2022-12-03T07:20:41.912Z,100.00
2022-12-03T07:23:45.015Z,100.00
2022-12-03T07:26:47.658Z,100.00
2022-12-03T07:29:50.574Z,100.00
2022-12-03T07:32:53.437Z,100.00
2022-12-03T07:35:56.346Z,100.00
2022-12-03T07:39:01.075Z,100.00
2022-12-03T07:42:04.138Z,100.00
2022-12-03T07:45:07.378Z,100.00
2022-12-03T07:48:10.278Z,100.00
2022-12-03T07:51:15.421Z,100.00
2022-12-03T07:54:18.870Z,100.00
2022-12-03T07:57:21.797Z,100.00
2022-12-03T08:00:24.718Z,100.00
2022-12-03T08:03:27.652Z,100.00
2022-12-03T08:06:30.249Z,100.00
2022-12-03T08:09:33.200Z,100.00
2022-12-03T08:12:42.050Z,100.00
2022-12-03T08:15:45.694Z,100.00
2022-12-03T08:18:50.121Z,100.00
2022-12-03T08:21:57.961Z,100.00
2022-12-03T08:25:06.832Z,98.97
2022-12-03T08:28:18.886Z,91.53
2022-12-03T08:31:32.357Z,94.67
2022-12-03T08:34:41.264Z,95.12
2022-12-03T08:37:43.886Z,96.21
2022-12-03T08:40:49.475Z,96.73
2022-12-03T08:43:52.040Z,97.26
2022-12-03T08:47:22.274Z,97.75
2022-12-03T08:50:29.449Z,98.31
2022-12-03T08:53:38.633Z,99.12
2022-12-03T08:56:41.695Z,99.29
2022-12-03T08:59:45.771Z,98.97
2022-12-03T09:02:52.379Z,98.44
2022-12-03T09:05:55.204Z,97.97
2022-12-03T09:09:01.135Z,98.23
2022-12-03T09:12:06.845Z,98.35
2022-12-03T09:15:09.915Z,98.32
2022-12-03T09:18:14.576Z,97.93
2022-12-03T09:21:17.184Z,97.92
2022-12-03T09:24:20.215Z,97.92
2022-12-03T09:27:22.943Z,97.48
2022-12-03T09:30:25.926Z,97.01
2022-12-03T09:33:28.563Z,97.17
2022-12-03T09:36:31.608Z,96.71
2022-12-03T09:39:34.731Z,97.28
2022-12-03T09:42:38.168Z,96.68
2022-12-03T09:45:40.892Z,95.28
2022-12-03T09:48:43.915Z,95.17
2022-12-03T09:51:46.840Z,94.97
2022-12-03T09:54:49.902Z,94.31
2022-12-03T09:57:57.550Z,93.55
2022-12-03T10:01:00.568Z,93.66
2022-12-03T10:04:03.584Z,93.33
2022-12-03T10:07:06.214Z,93.01
2022-12-03T10:10:16.652Z,92.85
2022-12-03T10:13:37.442Z,91.46
2022-12-03T10:16:41.528Z,92.79
2022-12-03T10:19:44.794Z,93.03
2022-12-03T10:22:48.997Z,93.94
2022-12-03T10:25:54.683Z,92.59
2022-12-03T10:28:57.602Z,92.72
2022-12-03T10:32:08.983Z,92.12
2022-12-03T10:35:15.394Z,92.44
2022-12-03T10:38:22.487Z,91.67
2022-12-03T10:41:29.053Z,92.87
2022-12-03T10:44:31.616Z,91.83
2022-12-03T10:47:34.646Z,92.62
2022-12-03T10:50:37.767Z,93.16
2022-12-03T10:53:41.462Z,93.00
2022-12-03T10:56:45.305Z,90.65
2022-12-03T10:59:49.931Z,91.34
2022-12-03T11:02:56.666Z,88.72
2022-12-03T11:06:06.159Z,87.28
2022-12-03T11:09:19.698Z,88.09
2022-12-03T11:12:23.984Z,87.82
2022-12-03T11:15:44.545Z,87.44
2022-12-03T11:18:50.248Z,87.49
2022-12-03T11:22:05.667Z,87.34
2022-12-03T11:25:26.892Z,86.80
2022-12-03T11:28:34.550Z,87.42
2022-12-03T11:31:45.276Z,85.97
2022-12-03T11:34:48.892Z,86.57
2022-12-03T11:37:52.287Z,86.99
2022-12-03T11:41:15.654Z,86.87
2022-12-03T11:44:30.687Z,86.54
2022-12-03T11:47:58.416Z,86.40
2022-12-03T11:51:01.550Z,87.67
2022-12-03T11:54:04.227Z,85.98
2022-12-03T11:57:26.827Z,85.88
2022-12-03T12:00:30.282Z,86.45
2022-12-03T12:03:34.412Z,85.46
2022-12-03T12:06:43.046Z,86.67
2022-12-03T12:09:55.000Z,87.20
2022-12-03T12:12:57.819Z,86.11
2022-12-03T12:16:02.985Z,86.03
2022-12-03T12:19:30.296Z,84.63
2022-12-03T12:22:34.091Z,84.52
2022-12-03T12:25:41.442Z,86.02
2022-12-03T12:28:44.736Z,85.64
2022-12-03T12:31:53.770Z,84.53
2022-12-03T12:35:15.371Z,85.21
2022-12-03T12:38:24.301Z,85.53
2022-12-03T12:41:27.301Z,86.78
2022-12-03T12:44:29.863Z,86.55
2022-12-03T12:47:36.725Z,86.35
2022-12-03T12:50:44.267Z,85.63
2022-12-03T12:53:47.933Z,86.41
2022-12-03T12:56:50.562Z,86.47
2022-12-03T12:59:55.476Z,85.77
2022-12-03T13:03:02.834Z,86.63
2022-12-03T13:06:06.363Z,86.96
2022-12-03T13:09:18.493Z,86.66
2022-12-03T13:12:23.306Z,86.81
2022-12-03T13:16:08.911Z,87.17
2022-12-03T13:19:39.614Z,86.98
2022-12-03T13:22:49.515Z,88.01
2022-12-03T13:26:08.413Z,88.89
2022-12-03T13:29:18.812Z,89.43
2022-12-03T13:32:33.100Z,88.79
2022-12-03T13:35:36.472Z,88.72
2022-12-03T13:38:39.446Z,88.29
2022-12-03T13:42:01.370Z,88.31
2022-12-03T13:45:16.331Z,88.31
2022-12-03T13:48:23.308Z,88.57
2022-12-03T13:51:29.823Z,89.09
2022-12-03T13:54:39.351Z,89.56
2022-12-03T13:57:42.311Z,90.11
2022-12-03T14:00:45.394Z,90.30
2022-12-03T14:03:49.528Z,90.46
2022-12-03T14:06:52.174Z,91.45
2022-12-03T14:09:55.381Z,90.91
2022-12-03T14:12:58.861Z,91.21
2022-12-03T14:16:01.754Z,91.34
2022-12-03T14:19:04.368Z,92.00
2022-12-03T14:22:09.692Z,91.93
2022-12-03T14:25:12.307Z,91.90
2022-12-03T14:28:15.143Z,91.71
2022-12-03T14:31:17.829Z,92.32
2022-12-03T14:34:20.753Z,93.22
2022-12-03T14:37:23.372Z,92.90
2022-12-03T14:40:27.259Z,93.70
2022-12-03T14:43:30.055Z,94.23
2022-12-03T14:46:32.950Z,94.47
2022-12-03T14:49:35.694Z,94.66
2022-12-03T14:52:38.694Z,95.29
2022-12-03T14:55:41.307Z,95.63
2022-12-03T14:58:44.191Z,96.08
2022-12-03T15:01:46.936Z,96.35
2022-12-03T15:04:49.938Z,96.58
2022-12-03T15:07:52.602Z,96.86
2022-12-03T15:10:55.654Z,96.80
2022-12-03T15:13:58.342Z,97.44
2022-12-03T15:17:01.249Z,98.04
2022-12-03T15:20:04.331Z,98.56
2022-12-03T15:23:12.719Z,98.93
2022-12-03T15:26:16.732Z,98.84
2022-12-03T15:29:20.592Z,98.64
2022-12-03T15:32:23.250Z,98.85
2022-12-03T15:35:26.138Z,99.49
2022-12-03T15:38:29.157Z,100.00
2022-12-03T15:41:32.548Z,100.00
2022-12-03T15:44:35.226Z,99.86
2022-12-03T15:47:38.796Z,100.00
2022-12-03T15:50:41.332Z,100.00
2022-12-03T15:53:44.387Z,100.00
2022-12-03T15:56:47.074Z,100.00
2022-12-03T15:59:50.146Z,100.00
2022-12-03T16:02:53.330Z,100.00
2022-12-03T16:05:56.290Z,100.00
2022-12-03T16:08:59.132Z,100.00
2022-12-03T16:12:02.143Z,100.00
2022-12-03T16:15:05.196Z,100.00
2022-12-03T16:18:08.211Z,100.00
2022-12-03T16:21:10.867Z,100.00
2022-12-03T16:24:13.937Z,100.00
2022-12-03T16:27:16.570Z,100.00
2022-12-03T16:30:19.553Z,100.00
2022-12-03T16:33:27.311Z,100.00
2022-12-03T16:36:30.922Z,100.00
2022-12-03T16:39:33.487Z,100.00
2022-12-03T16:42:37.395Z,100.00
2022-12-03T16:45:56.003Z,100.00
2022-12-03T16:48:59.458Z,100.00
2022-12-03T16:52:02.295Z,100.00
2022-12-03T16:55:05.557Z,100.00
2022-12-03T16:58:08.127Z,100.00
2022-12-03T17:01:11.529Z,100.00
2022-12-03T17:04:14.206Z,100.00
2022-12-03T17:07:17.099Z,100.00
2022-12-03T17:10:19.861Z,100.00
2022-12-03T17:13:23.374Z,100.00
2022-12-03T17:16:26.226Z,100.00
2022-12-03T17:19:29.447Z,100.00
2022-12-03T17:22:32.272Z,100.00
2022-12-03T17:25:35.618Z,100.00
2022-12-03T17:28:38.298Z,100.00
2022-12-03T17:31:42.765Z,100.00
2022-12-03T17:34:45.613Z,100.00
2022-12-03T17:37:48.504Z,100.00
2022-12-03T17:40:51.289Z,100.00
2022-12-03T17:43:54.374Z,100.00
2022-12-03T17:46:57.018Z,100.00
2022-12-03T17:50:00.203Z,100.00
2022-12-03T17:53:05.487Z,100.00
2022-12-03T17:56:08.394Z,100.00
2022-12-03T17:59:12.705Z,100.00
2022-12-03T18:02:15.994Z,100.00
2022-12-03T18:05:18.941Z,100.00
2022-12-03T18:08:21.801Z,100.00
2022-12-03T18:11:25.145Z,100.00
2022-12-03T18:14:27.977Z,100.00
2022-12-03T18:17:30.884Z,100.00
2022-12-03T18:20:33.572Z,100.00
2022-12-03T18:23:36.660Z,100.00
2022-12-03T18:26:39.259Z,100.00
2022-12-03T18:29:42.098Z,100.00
2022-12-03T18:32:44.702Z,100.00
2022-12-03T18:35:47.644Z,100.00
2022-12-03T18:38:53.023Z,100.00
2022-12-03T18:41:56.001Z,100.00
2022-12-03T18:44:59.435Z,100.00
2022-12-03T18:48:02.484Z,100.00
2022-12-03T18:51:20.046Z,100.00
2022-12-03T18:54:23.265Z,100.00
2022-12-03T18:57:25.906Z,100.00
2022-12-03T19:00:29.057Z,100.00
2022-12-03T19:03:32.531Z,100.00
2022-12-03T19:06:35.726Z,100.00
2022-12-03T19:09:39.711Z,100.00
2022-12-03T19:12:42.795Z,100.00
2022-12-03T19:15:46.409Z,100.00
2022-12-03T19:18:49.331Z,100.00
2022-12-03T19:21:52.252Z,100.00
2022-12-03T19:24:55.965Z,100.00
2022-12-03T19:27:58.994Z,100.00
2022-12-03T19:31:04.909Z,100.00
2022-12-03T19:34:07.527Z,100.00
2022-12-03T19:37:10.602Z,100.00
2022-12-03T19:40:15.111Z,100.00
2022-12-03T19:43:18.373Z,100.00
2022-12-03T19:46:22.867Z,100.00
2022-12-03T19:49:26.590Z,100.00
2022-12-03T19:52:29.736Z,100.00
2022-12-03T19:55:34.789Z,100.00
2022-12-03T19:58:39.347Z,100.00
2022-12-03T20:01:43.590Z,100.00
2022-12-03T20:04:46.862Z,100.00
2022-12-03T20:07:49.959Z,100.00
2022-12-03T20:11:17.550Z,100.00
2022-12-03T20:14:20.331Z,100.00
2022-12-03T20:17:23.542Z,100.00
2022-12-03T20:20:27.704Z,100.00
2022-12-03T20:23:30.799Z,100.00
2022-12-03T20:26:34.233Z,100.00
2022-12-03T20:29:37.411Z,100.00
2022-12-03T20:32:45.155Z,100.00
2022-12-03T20:35:55.374Z,100.00
2022-12-03T20:39:05.614Z,100.00
2022-12-03T20:42:10.678Z,100.00
2022-12-03T20:45:13.548Z,100.00
2022-12-03T20:48:16.667Z,100.00
2022-12-03T20:51:22.391Z,100.00
2022-12-03T20:54:25.483Z,100.00
2022-12-03T20:57:28.222Z,100.00
2022-12-03T21:00:31.434Z,100.00
2022-12-03T21:03:34.299Z,100.00
2022-12-03T21:06:37.959Z,100.00
2022-12-03T21:09:40.843Z,100.00
2022-12-03T21:12:44.440Z,100.00
2022-12-03T21:15:47.411Z,100.00
2022-12-03T21:18:50.526Z,100.00
2022-12-03T21:21:53.392Z,99.21
2022-12-03T21:24:56.420Z,99.16
2022-12-03T21:27:59.196Z,98.94
2022-12-03T21:31:08.512Z,99.04
2022-12-03T21:34:12.952Z,98.60
2022-12-03T21:37:16.024Z,98.47
2022-12-03T21:40:19.400Z,97.87
2022-12-03T21:43:23.011Z,97.97
2022-12-03T21:47:12.408Z,97.86
2022-12-03T21:49:49.849Z,98.35
2022-12-03T21:52:52.771Z,97.47
2022-12-03T21:55:55.622Z,97.04
2022-12-03T21:58:58.225Z,96.82
2022-12-03T22:02:01.247Z,97.09
2022-12-03T22:05:04.511Z,96.92
2022-12-03T22:08:07.517Z,96.72
2022-12-03T22:11:13.713Z,96.61
2022-12-03T22:14:16.328Z,96.33
2022-12-03T22:17:19.382Z,96.50
2022-12-03T22:20:22.068Z,96.68
2022-12-03T22:23:24.971Z,96.91
2022-12-03T22:26:27.580Z,97.29
2022-12-03T22:29:30.887Z,96.67
2022-12-03T22:32:33.432Z,96.71
2022-12-03T22:35:36.258Z,96.67
2022-12-03T22:38:39.309Z,96.93
2022-12-03T22:41:42.232Z,96.52
2022-12-03T22:44:44.922Z,95.90
2022-12-03T22:47:47.738Z,95.55
2022-12-03T22:50:52.207Z,96.17
2022-12-03T22:53:58.182Z,96.28
2022-12-03T22:57:00.802Z,95.93
2022-12-03T23:00:10.396Z,96.42
2022-12-03T23:03:13.047Z,96.50
2022-12-03T23:06:16.447Z,96.65
2022-12-03T23:09:19.092Z,96.23
2022-12-03T23:12:22.425Z,96.27
2022-12-03T23:15:24.972Z,95.17
2022-12-03T23:18:27.852Z,95.35
2022-12-03T23:21:33.235Z,95.51
2022-12-03T23:24:36.436Z,95.52
2022-12-03T23:27:39.059Z,95.41
2022-12-03T23:30:41.966Z,95.10
2022-12-03T23:33:44.770Z,95.22
2022-12-03T23:36:47.651Z,95.63
2022-12-03T23:39:50.714Z,95.54
2022-12-03T23:42:53.701Z,95.57
2022-12-03T23:46:03.900Z,95.55
2022-12-03T23:49:07.079Z,95.53
2022-12-03T23:52:09.607Z,95.50
2022-12-03T23:55:12.515Z,95.57
2022-12-03T23:58:15.505Z,95.38
